sensor_id;sensor_type;location;lat;lon;timestamp;temperature;humidity
23731;DHT22;12046;44.702;10.622;2022-10-16T00:01:21;19.50;99.90
23731;DHT22;12046;44.702;10.622;2022-10-16T00:03:48;19.50;99.90
23731;DHT22;12046;44.702;10.622;2022-10-16T00:06:16;19.50;99.90
23731;DHT22;12046;44.702;10.622;2022-10-16T00:08:42;19.50;99.90
23731;DHT22;12046;44.702;10.622;2022-10-16T00:11:12;19.50;99.90
23731;DHT22;12046;44.702;10.622;2022-10-16T00:13:40;19.50;99.90
23731;DHT22;12046;44.702;10.622;2022-10-16T00:16:07;19.50;99.90
23731;DHT22;12046;44.702;10.622;2022-10-16T00:18:34;19.50;99.90
23731;DHT22;12046;44.702;10.622;2022-10-16T00:21:08;19.50;99.90
23731;DHT22;12046;44.702;10.622;2022-10-16T00:23:34;19.50;99.90
23731;DHT22;12046;44.702;10.622;2022-10-16T00:26:06;19.60;99.90
23731;DHT22;12046;44.702;10.622;2022-10-16T00:28:34;19.50;99.90
23731;DHT22;12046;44.702;10.622;2022-10-16T00:31:08;19.50;99.90
23731;DHT22;12046;44.702;10.622;2022-10-16T00:33:35;19.50;99.90
23731;DHT22;12046;44.702;10.622;2022-10-16T00:36:02;19.50;99.90
23731;DHT22;12046;44.702;10.622;2022-10-16T00:38:28;19.50;99.90
23731;DHT22;12046;44.702;10.622;2022-10-16T00:40:55;19.40;99.90
23731;DHT22;12046;44.702;10.622;2022-10-16T00:48:42;19.30;99.90
23731;DHT22;12046;44.702;10.622;2022-10-16T00:51:11;19.20;99.90
23731;DHT22;12046;44.702;10.622;2022-10-16T00:53:37;19.20;99.90
23731;DHT22;12046;44.702;10.622;2022-10-16T00:56:03;19.20;99.90
23731;DHT22;12046;44.702;10.622;2022-10-16T00:58:29;19.20;99.90
23731;DHT22;12046;44.702;10.622;2022-10-16T01:00:56;19.20;99.90
23731;DHT22;12046;44.702;10.622;2022-10-16T01:03:29;19.10;99.90
23731;DHT22;12046;44.702;10.622;2022-10-16T01:14:58;19.20;99.90
23731;DHT22;12046;44.702;10.622;2022-10-16T01:28:14;19.20;99.90
23731;DHT22;12046;44.702;10.622;2022-10-16T01:30:43;19.20;99.90
23731;DHT22;12046;44.702;10.622;2022-10-16T01:33:35;19.30;99.90
23731;DHT22;12046;44.702;10.622;2022-10-16T01:36:10;19.30;99.90
23731;DHT22;12046;44.702;10.622;2022-10-16T01:38:39;19.30;99.90
23731;DHT22;12046;44.702;10.622;2022-10-16T01:41:55;19.30;99.90
23731;DHT22;12046;44.702;10.622;2022-10-16T01:44:04;19.20;99.90
23731;DHT22;12046;44.702;10.622;2022-10-16T01:46:32;19.30;99.90
23731;DHT22;12046;44.702;10.622;2022-10-16T01:49:00;19.30;99.90
23731;DHT22;12046;44.702;10.622;2022-10-16T01:51:28;19.30;99.90
23731;DHT22;12046;44.702;10.622;2022-10-16T01:53:57;19.30;99.90
23731;DHT22;12046;44.702;10.622;2022-10-16T01:56:25;19.30;99.90
23731;DHT22;12046;44.702;10.622;2022-10-16T01:59:00;19.20;99.90
23731;DHT22;12046;44.702;10.622;2022-10-16T02:01:30;19.20;99.90
23731;DHT22;12046;44.702;10.622;2022-10-16T02:04:01;19.10;99.90
23731;DHT22;12046;44.702;10.622;2022-10-16T02:06:29;19.10;99.90
23731;DHT22;12046;44.702;10.622;2022-10-16T02:08:55;19.10;99.90
23731;DHT22;12046;44.702;10.622;2022-10-16T02:11:21;19.10;99.90
23731;DHT22;12046;44.702;10.622;2022-10-16T02:13:52;19.10;99.90
23731;DHT22;12046;44.702;10.622;2022-10-16T02:16:19;19.00;99.90
23731;DHT22;12046;44.702;10.622;2022-10-16T02:18:45;19.00;99.90
23731;DHT22;12046;44.702;10.622;2022-10-16T02:21:19;19.00;99.90
23731;DHT22;12046;44.702;10.622;2022-10-16T02:26:57;18.80;99.90
23731;DHT22;12046;44.702;10.622;2022-10-16T02:29:27;18.90;99.90
23731;DHT22;12046;44.702;10.622;2022-10-16T02:31:57;18.80;99.90
23731;DHT22;12046;44.702;10.622;2022-10-16T02:34:26;18.70;99.90
23731;DHT22;12046;44.702;10.622;2022-10-16T02:36:54;18.70;99.90
23731;DHT22;12046;44.702;10.622;2022-10-16T02:39:21;18.60;99.90
23731;DHT22;12046;44.702;10.622;2022-10-16T02:41:47;18.60;99.90
23731;DHT22;12046;44.702;10.622;2022-10-16T02:44:13;18.60;99.90
23731;DHT22;12046;44.702;10.622;2022-10-16T02:46:40;18.60;99.90
23731;DHT22;12046;44.702;10.622;2022-10-16T02:49:06;18.50;99.90
23731;DHT22;12046;44.702;10.622;2022-10-16T02:51:32;18.50;99.90
23731;DHT22;12046;44.702;10.622;2022-10-16T02:53:57;18.50;99.90
23731;DHT22;12046;44.702;10.622;2022-10-16T02:56:23;18.40;99.90
23731;DHT22;12046;44.702;10.622;2022-10-16T02:58:50;18.40;99.90
23731;DHT22;12046;44.702;10.622;2022-10-16T03:01:15;18.40;99.90
23731;DHT22;12046;44.702;10.622;2022-10-16T03:03:42;18.30;99.90
23731;DHT22;12046;44.702;10.622;2022-10-16T03:06:08;18.30;99.90
23731;DHT22;12046;44.702;10.622;2022-10-16T03:08:34;18.30;99.90
23731;DHT22;12046;44.702;10.622;2022-10-16T03:11:00;18.20;99.90
23731;DHT22;12046;44.702;10.622;2022-10-16T03:13:26;18.10;99.90
23731;DHT22;12046;44.702;10.622;2022-10-16T03:15:52;18.10;99.90
23731;DHT22;12046;44.702;10.622;2022-10-16T03:18:18;18.00;99.90
23731;DHT22;12046;44.702;10.622;2022-10-16T03:20:44;17.90;99.90
23731;DHT22;12046;44.702;10.622;2022-10-16T03:23:10;17.90;99.90
23731;DHT22;12046;44.702;10.622;2022-10-16T03:25:36;17.80;99.90
23731;DHT22;12046;44.702;10.622;2022-10-16T03:28:02;17.80;99.90
23731;DHT22;12046;44.702;10.622;2022-10-16T03:30:29;17.80;99.90
23731;DHT22;12046;44.702;10.622;2022-10-16T03:32:54;17.80;99.90
23731;DHT22;12046;44.702;10.622;2022-10-16T03:35:21;17.80;99.90
23731;DHT22;12046;44.702;10.622;2022-10-16T03:37:48;17.80;99.90
23731;DHT22;12046;44.702;10.622;2022-10-16T03:40:14;17.80;99.90
23731;DHT22;12046;44.702;10.622;2022-10-16T03:42:42;17.80;99.90
23731;DHT22;12046;44.702;10.622;2022-10-16T03:45:09;17.80;99.90
23731;DHT22;12046;44.702;10.622;2022-10-16T03:47:36;17.80;99.90
23731;DHT22;12046;44.702;10.622;2022-10-16T03:50:03;17.70;99.90
23731;DHT22;12046;44.702;10.622;2022-10-16T03:52:29;17.70;99.90
23731;DHT22;12046;44.702;10.622;2022-10-16T03:54:55;17.60;99.90
23731;DHT22;12046;44.702;10.622;2022-10-16T03:57:21;17.60;99.90
23731;DHT22;12046;44.702;10.622;2022-10-16T03:59:47;17.50;99.90
23731;DHT22;12046;44.702;10.622;2022-10-16T04:02:13;17.40;99.90
23731;DHT22;12046;44.702;10.622;2022-10-16T04:04:39;17.40;99.90
23731;DHT22;12046;44.702;10.622;2022-10-16T04:07:05;17.30;99.90
23731;DHT22;12046;44.702;10.622;2022-10-16T04:09:31;17.30;99.90
23731;DHT22;12046;44.702;10.622;2022-10-16T04:11:57;17.20;99.90
23731;DHT22;12046;44.702;10.622;2022-10-16T04:14:23;17.20;99.90
23731;DHT22;12046;44.702;10.622;2022-10-16T04:16:49;17.20;99.90
23731;DHT22;12046;44.702;10.622;2022-10-16T04:19:15;17.10;99.90
23731;DHT22;12046;44.702;10.622;2022-10-16T04:21:41;17.10;99.90
23731;DHT22;12046;44.702;10.622;2022-10-16T04:24:08;17.00;99.90
23731;DHT22;12046;44.702;10.622;2022-10-16T04:26:34;17.00;99.90
23731;DHT22;12046;44.702;10.622;2022-10-16T04:29:00;17.00;99.90
23731;DHT22;12046;44.702;10.622;2022-10-16T04:31:26;16.90;99.90
23731;DHT22;12046;44.702;10.622;2022-10-16T04:33:52;17.00;99.90
23731;DHT22;12046;44.702;10.622;2022-10-16T04:36:18;17.00;99.90
23731;DHT22;12046;44.702;10.622;2022-10-16T04:38:44;17.00;99.90
23731;DHT22;12046;44.702;10.622;2022-10-16T04:41:10;17.00;99.90
23731;DHT22;12046;44.702;10.622;2022-10-16T04:43:36;17.00;99.90
23731;DHT22;12046;44.702;10.622;2022-10-16T04:46:02;17.00;99.90
23731;DHT22;12046;44.702;10.622;2022-10-16T04:48:30;17.00;99.90
23731;DHT22;12046;44.702;10.622;2022-10-16T04:50:57;17.00;99.90
23731;DHT22;12046;44.702;10.622;2022-10-16T04:53:23;17.00;99.90
23731;DHT22;12046;44.702;10.622;2022-10-16T04:55:49;16.90;99.90
23731;DHT22;12046;44.702;10.622;2022-10-16T04:58:15;16.90;99.90
23731;DHT22;12046;44.702;10.622;2022-10-16T05:00:41;16.90;99.90
23731;DHT22;12046;44.702;10.622;2022-10-16T05:03:07;16.90;99.90
23731;DHT22;12046;44.702;10.622;2022-10-16T05:05:35;16.80;99.90
23731;DHT22;12046;44.702;10.622;2022-10-16T05:08:02;16.80;99.90
23731;DHT22;12046;44.702;10.622;2022-10-16T05:10:28;16.80;99.90
23731;DHT22;12046;44.702;10.622;2022-10-16T05:12:54;16.70;99.90
23731;DHT22;12046;44.702;10.622;2022-10-16T05:15:20;16.60;99.90
23731;DHT22;12046;44.702;10.622;2022-10-16T05:17:46;16.60;99.90
23731;DHT22;12046;44.702;10.622;2022-10-16T05:20:12;16.50;99.90
23731;DHT22;12046;44.702;10.622;2022-10-16T05:22:38;16.50;99.90
23731;DHT22;12046;44.702;10.622;2022-10-16T05:25:05;16.50;99.90
23731;DHT22;12046;44.702;10.622;2022-10-16T05:27:31;16.50;99.90
23731;DHT22;12046;44.702;10.622;2022-10-16T05:29:57;16.50;99.90
23731;DHT22;12046;44.702;10.622;2022-10-16T05:32:23;16.50;99.90
23731;DHT22;12046;44.702;10.622;2022-10-16T05:34:50;16.50;99.90
23731;DHT22;12046;44.702;10.622;2022-10-16T05:37:16;16.40;99.90
23731;DHT22;12046;44.702;10.622;2022-10-16T05:39:42;16.40;99.90
23731;DHT22;12046;44.702;10.622;2022-10-16T05:42:08;16.40;99.90
23731;DHT22;12046;44.702;10.622;2022-10-16T05:44:34;16.30;99.90
23731;DHT22;12046;44.702;10.622;2022-10-16T05:47:00;16.40;99.90
23731;DHT22;12046;44.702;10.622;2022-10-16T05:49:26;16.30;99.90
23731;DHT22;12046;44.702;10.622;2022-10-16T05:51:52;16.30;99.90
23731;DHT22;12046;44.702;10.622;2022-10-16T05:54:18;16.30;99.90
23731;DHT22;12046;44.702;10.622;2022-10-16T05:56:44;16.20;99.90
23731;DHT22;12046;44.702;10.622;2022-10-16T05:59:10;16.20;99.90
23731;DHT22;12046;44.702;10.622;2022-10-16T06:01:36;16.20;99.90
23731;DHT22;12046;44.702;10.622;2022-10-16T06:04:02;16.20;99.90
23731;DHT22;12046;44.702;10.622;2022-10-16T06:06:29;16.30;99.90
23731;DHT22;12046;44.702;10.622;2022-10-16T06:08:57;16.40;99.90
23731;DHT22;12046;44.702;10.622;2022-10-16T06:11:25;16.40;99.90
23731;DHT22;12046;44.702;10.622;2022-10-16T06:13:52;16.50;99.90
23731;DHT22;12046;44.702;10.622;2022-10-16T06:16:19;16.60;99.90
23731;DHT22;12046;44.702;10.622;2022-10-16T06:18:45;16.60;99.90
23731;DHT22;12046;44.702;10.622;2022-10-16T06:21:14;16.80;99.90
23731;DHT22;12046;44.702;10.622;2022-10-16T06:23:42;16.80;99.90
23731;DHT22;12046;44.702;10.622;2022-10-16T06:26:10;16.80;99.90
23731;DHT22;12046;44.702;10.622;2022-10-16T06:28:37;16.80;99.90
23731;DHT22;12046;44.702;10.622;2022-10-16T06:31:04;16.90;99.90
23731;DHT22;12046;44.702;10.622;2022-10-16T06:33:30;17.00;99.90
23731;DHT22;12046;44.702;10.622;2022-10-16T06:36:13;17.00;99.90
23731;DHT22;12046;44.702;10.622;2022-10-16T06:38:40;17.10;99.90
23731;DHT22;12046;44.702;10.622;2022-10-16T06:41:07;17.20;99.90
23731;DHT22;12046;44.702;10.622;2022-10-16T06:43:33;17.30;99.90
23731;DHT22;12046;44.702;10.622;2022-10-16T06:46:03;17.30;99.90
23731;DHT22;12046;44.702;10.622;2022-10-16T06:48:29;17.30;99.90
23731;DHT22;12046;44.702;10.622;2022-10-16T06:51:25;17.30;99.90
23731;DHT22;12046;44.702;10.622;2022-10-16T06:53:53;17.40;99.90
23731;DHT22;12046;44.702;10.622;2022-10-16T06:56:21;17.50;99.90
23731;DHT22;12046;44.702;10.622;2022-10-16T06:58:48;17.50;99.90
23731;DHT22;12046;44.702;10.622;2022-10-16T07:01:16;17.60;99.90
23731;DHT22;12046;44.702;10.622;2022-10-16T07:03:43;17.60;99.90
23731;DHT22;12046;44.702;10.622;2022-10-16T07:06:12;17.70;99.90
23731;DHT22;12046;44.702;10.622;2022-10-16T07:08:40;17.80;99.90
23731;DHT22;12046;44.702;10.622;2022-10-16T07:11:08;17.90;99.90
23731;DHT22;12046;44.702;10.622;2022-10-16T07:13:35;17.90;99.90
23731;DHT22;12046;44.702;10.622;2022-10-16T07:16:15;17.90;99.90
23731;DHT22;12046;44.702;10.622;2022-10-16T07:18:45;18.00;99.90
23731;DHT22;12046;44.702;10.622;2022-10-16T07:21:14;18.10;99.90
23731;DHT22;12046;44.702;10.622;2022-10-16T07:23:40;18.20;99.90
23731;DHT22;12046;44.702;10.622;2022-10-16T07:26:07;18.30;99.90
23731;DHT22;12046;44.702;10.622;2022-10-16T07:28:33;18.50;99.90
23731;DHT22;12046;44.702;10.622;2022-10-16T07:31:08;18.60;99.90
23731;DHT22;12046;44.702;10.622;2022-10-16T07:33:40;18.90;99.90
23731;DHT22;12046;44.702;10.622;2022-10-16T07:36:08;19.20;99.90
23731;DHT22;12046;44.702;10.622;2022-10-16T07:38:34;19.40;99.90
23731;DHT22;12046;44.702;10.622;2022-10-16T07:41:03;19.70;99.90
23731;DHT22;12046;44.702;10.622;2022-10-16T07:43:29;20.20;99.90
23731;DHT22;12046;44.702;10.622;2022-10-16T07:45:55;20.70;99.90
23731;DHT22;12046;44.702;10.622;2022-10-16T07:48:26;21.10;99.90
23731;DHT22;12046;44.702;10.622;2022-10-16T07:51:00;21.60;99.90
23731;DHT22;12046;44.702;10.622;2022-10-16T07:53:27;22.00;99.90
23731;DHT22;12046;44.702;10.622;2022-10-16T07:55:57;22.30;99.90
23731;DHT22;12046;44.702;10.622;2022-10-16T07:58:36;22.60;99.90
23731;DHT22;12046;44.702;10.622;2022-10-16T08:01:04;22.90;99.90
23731;DHT22;12046;44.702;10.622;2022-10-16T08:03:30;23.30;99.90
23731;DHT22;12046;44.702;10.622;2022-10-16T08:05:57;23.50;99.90
23731;DHT22;12046;44.702;10.622;2022-10-16T08:08:24;23.60;99.90
23731;DHT22;12046;44.702;10.622;2022-10-16T08:10:50;23.50;99.90
23731;DHT22;12046;44.702;10.622;2022-10-16T08:13:16;23.70;99.90
23731;DHT22;12046;44.702;10.622;2022-10-16T08:15:44;24.00;99.90
23731;DHT22;12046;44.702;10.622;2022-10-16T08:18:12;24.30;99.80
23731;DHT22;12046;44.702;10.622;2022-10-16T08:20:40;24.30;99.50
23731;DHT22;12046;44.702;10.622;2022-10-16T08:23:07;24.40;99.50
23731;DHT22;12046;44.702;10.622;2022-10-16T08:25:36;24.70;99.40
23731;DHT22;12046;44.702;10.622;2022-10-16T08:28:08;24.70;98.70
23731;DHT22;12046;44.702;10.622;2022-10-16T08:30:34;24.60;98.90
23731;DHT22;12046;44.702;10.622;2022-10-16T08:33:01;24.70;98.70
23731;DHT22;12046;44.702;10.622;2022-10-16T08:35:31;24.80;98.50
23731;DHT22;12046;44.702;10.622;2022-10-16T08:37:57;25.00;98.40
23731;DHT22;12046;44.702;10.622;2022-10-16T08:40:29;25.10;98.00
23731;DHT22;12046;44.702;10.622;2022-10-16T08:45:51;25.50;97.60
23731;DHT22;12046;44.702;10.622;2022-10-16T08:51:08;25.90;96.70
23731;DHT22;12046;44.702;10.622;2022-10-16T08:53:44;26.10;96.60
23731;DHT22;12046;44.702;10.622;2022-10-16T08:56:10;26.50;96.30
23731;DHT22;12046;44.702;10.622;2022-10-16T08:58:36;27.00;95.80
23731;DHT22;12046;44.702;10.622;2022-10-16T09:01:04;27.50;94.90
23731;DHT22;12046;44.702;10.622;2022-10-16T09:07:01;27.80;94.10
23731;DHT22;12046;44.702;10.622;2022-10-16T09:12:21;29.00;93.20
23731;DHT22;12046;44.702;10.622;2022-10-16T09:25:43;31.50;90.00
23731;DHT22;12046;44.702;10.622;2022-10-16T09:28:10;32.50;87.50
23731;DHT22;12046;44.702;10.622;2022-10-16T09:30:37;33.30;85.70
23731;DHT22;12046;44.702;10.622;2022-10-16T09:33:05;33.70;83.80
23731;DHT22;12046;44.702;10.622;2022-10-16T09:35:37;33.40;84.00
23731;DHT22;12046;44.702;10.622;2022-10-16T09:38:04;32.80;84.00
23731;DHT22;12046;44.702;10.622;2022-10-16T09:40:38;32.20;85.10
23731;DHT22;12046;44.702;10.622;2022-10-16T09:43:26;31.30;86.30
23731;DHT22;12046;44.702;10.622;2022-10-16T09:46:04;31.10;86.90
23731;DHT22;12046;44.702;10.622;2022-10-16T09:48:43;31.60;86.70
23731;DHT22;12046;44.702;10.622;2022-10-16T09:51:29;32.50;86.20
23731;DHT22;12046;44.702;10.622;2022-10-16T09:56:29;34.70;82.00
23731;DHT22;12046;44.702;10.622;2022-10-16T09:58:59;35.50;79.40
23731;DHT22;12046;44.702;10.622;2022-10-16T10:01:55;35.90;78.00
23731;DHT22;12046;44.702;10.622;2022-10-16T10:04:23;36.30;77.30
23731;DHT22;12046;44.702;10.622;2022-10-16T10:06:53;36.50;76.10
23731;DHT22;12046;44.702;10.622;2022-10-16T10:09:36;36.80;74.80
23731;DHT22;12046;44.702;10.622;2022-10-16T10:12:05;36.80;75.10
23731;DHT22;12046;44.702;10.622;2022-10-16T10:19:39;35.10;75.90
23731;DHT22;12046;44.702;10.622;2022-10-16T10:24:54;34.50;76.00
23731;DHT22;12046;44.702;10.622;2022-10-16T10:27:21;34.60;74.70
23731;DHT22;12046;44.702;10.622;2022-10-16T10:30:04;35.00;75.50
23731;DHT22;12046;44.702;10.622;2022-10-16T10:32:48;35.30;74.20
23731;DHT22;12046;44.702;10.622;2022-10-16T10:35:31;35.30;74.50
23731;DHT22;12046;44.702;10.622;2022-10-16T10:38:16;35.00;74.10
23731;DHT22;12046;44.702;10.622;2022-10-16T10:54:59;33.60;75.80
23731;DHT22;12046;44.702;10.622;2022-10-16T11:00:20;33.20;76.10
23731;DHT22;12046;44.702;10.622;2022-10-16T11:05:51;31.70;78.10
23731;DHT22;12046;44.702;10.622;2022-10-16T11:08:19;31.00;80.00
23731;DHT22;12046;44.702;10.622;2022-10-16T11:10:52;30.70;80.20
23731;DHT22;12046;44.702;10.622;2022-10-16T11:15:58;30.80;80.40
23731;DHT22;12046;44.702;10.622;2022-10-16T11:18:32;31.10;80.60
23731;DHT22;12046;44.702;10.622;2022-10-16T11:21:08;31.30;80.40
23731;DHT22;12046;44.702;10.622;2022-10-16T11:26:25;31.40;80.00
23731;DHT22;12046;44.702;10.622;2022-10-16T11:28:53;31.40;81.20
23731;DHT22;12046;44.702;10.622;2022-10-16T11:31:56;31.50;80.50
23731;DHT22;12046;44.702;10.622;2022-10-16T11:34:47;31.80;79.40
23731;DHT22;12046;44.702;10.622;2022-10-16T11:37:25;32.00;78.80
23731;DHT22;12046;44.702;10.622;2022-10-16T11:39:58;32.30;78.10
23731;DHT22;12046;44.702;10.622;2022-10-16T11:42:41;32.30;78.30
23731;DHT22;12046;44.702;10.622;2022-10-16T11:48:18;32.70;77.90
23731;DHT22;12046;44.702;10.622;2022-10-16T11:50:53;32.70;77.70
23731;DHT22;12046;44.702;10.622;2022-10-16T11:53:42;32.50;78.80
23731;DHT22;12046;44.702;10.622;2022-10-16T11:56:16;32.20;77.20
23731;DHT22;12046;44.702;10.622;2022-10-16T11:58:56;31.60;79.50
23731;DHT22;12046;44.702;10.622;2022-10-16T12:07:10;31.20;78.70
23731;DHT22;12046;44.702;10.622;2022-10-16T12:09:39;31.20;79.40
23731;DHT22;12046;44.702;10.622;2022-10-16T12:12:24;31.30;79.70
23731;DHT22;12046;44.702;10.622;2022-10-16T12:15:01;31.50;78.00
23731;DHT22;12046;44.702;10.622;2022-10-16T12:17:38;31.40;78.70
23731;DHT22;12046;44.702;10.622;2022-10-16T12:22:53;31.50;78.70
23731;DHT22;12046;44.702;10.622;2022-10-16T12:28:05;31.00;78.70
23731;DHT22;12046;44.702;10.622;2022-10-16T12:30:36;30.80;79.10
23731;DHT22;12046;44.702;10.622;2022-10-16T12:33:15;31.00;79.60
23731;DHT22;12046;44.702;10.622;2022-10-16T12:35:45;31.20;79.00
23731;DHT22;12046;44.702;10.622;2022-10-16T12:43:43;30.90;78.70
23731;DHT22;12046;44.702;10.622;2022-10-16T12:48:37;29.70;80.80
23731;DHT22;12046;44.702;10.622;2022-10-16T12:51:25;29.30;81.70
23731;DHT22;12046;44.702;10.622;2022-10-16T12:57:08;28.30;83.00
23731;DHT22;12046;44.702;10.622;2022-10-16T13:00:03;28.00;83.80
23731;DHT22;12046;44.702;10.622;2022-10-16T13:03:06;27.70;84.20
23731;DHT22;12046;44.702;10.622;2022-10-16T13:09:27;27.10;86.20
23731;DHT22;12046;44.702;10.622;2022-10-16T13:12:21;27.00;86.90
23731;DHT22;12046;44.702;10.622;2022-10-16T13:28:33;27.00;86.80
23731;DHT22;12046;44.702;10.622;2022-10-16T13:31:03;27.00;87.20
23731;DHT22;12046;44.702;10.622;2022-10-16T13:33:46;27.00;86.50
23731;DHT22;12046;44.702;10.622;2022-10-16T13:36:42;26.70;87.00
23731;DHT22;12046;44.702;10.622;2022-10-16T13:39:20;26.60;87.70
23731;DHT22;12046;44.702;10.622;2022-10-16T13:44:28;26.30;87.30
23731;DHT22;12046;44.702;10.622;2022-10-16T13:47:03;26.20;88.10
23731;DHT22;12046;44.702;10.622;2022-10-16T13:49:38;26.20;88.00
23731;DHT22;12046;44.702;10.622;2022-10-16T13:52:04;26.30;88.70
23731;DHT22;12046;44.702;10.622;2022-10-16T13:54:41;26.30;87.80
23731;DHT22;12046;44.702;10.622;2022-10-16T13:57:17;26.40;87.60
23731;DHT22;12046;44.702;10.622;2022-10-16T13:59:50;26.30;87.50
23731;DHT22;12046;44.702;10.622;2022-10-16T14:02:44;26.20;87.40
23731;DHT22;12046;44.702;10.622;2022-10-16T14:05:11;26.20;87.90
23731;DHT22;12046;44.702;10.622;2022-10-16T14:07:42;26.20;88.10
23731;DHT22;12046;44.702;10.622;2022-10-16T14:14:00;26.20;87.40
23731;DHT22;12046;44.702;10.622;2022-10-16T14:16:41;26.20;87.30
23731;DHT22;12046;44.702;10.622;2022-10-16T14:19:21;26.20;88.00
23731;DHT22;12046;44.702;10.622;2022-10-16T14:21:54;26.20;87.80
23731;DHT22;12046;44.702;10.622;2022-10-16T14:24:58;26.10;88.10
23731;DHT22;12046;44.702;10.622;2022-10-16T14:27:32;26.10;87.60
23731;DHT22;12046;44.702;10.622;2022-10-16T14:30:26;26.10;87.90
23731;DHT22;12046;44.702;10.622;2022-10-16T14:33:01;26.10;87.40
23731;DHT22;12046;44.702;10.622;2022-10-16T14:35:39;26.00;87.50
23731;DHT22;12046;44.702;10.622;2022-10-16T14:38:18;25.90;86.90
23731;DHT22;12046;44.702;10.622;2022-10-16T14:41:06;25.80;87.20
23731;DHT22;12046;44.702;10.622;2022-10-16T14:43:36;25.80;87.40
23731;DHT22;12046;44.702;10.622;2022-10-16T15:18:36;25.30;90.20
23731;DHT22;12046;44.702;10.622;2022-10-16T15:21:02;25.20;90.20
23731;DHT22;12046;44.702;10.622;2022-10-16T15:23:28;25.20;90.60
23731;DHT22;12046;44.702;10.622;2022-10-16T15:25:55;25.10;90.90
23731;DHT22;12046;44.702;10.622;2022-10-16T15:28:23;25.10;90.80
23731;DHT22;12046;44.702;10.622;2022-10-16T15:31:21;25.10;90.80
23731;DHT22;12046;44.702;10.622;2022-10-16T15:33:59;25.10;90.90
23731;DHT22;12046;44.702;10.622;2022-10-16T15:36:36;25.10;90.90
23731;DHT22;12046;44.702;10.622;2022-10-16T15:39:17;25.10;90.80
23731;DHT22;12046;44.702;10.622;2022-10-16T15:41:45;25.00;90.80
23731;DHT22;12046;44.702;10.622;2022-10-16T15:44:17;25.00;90.90
23731;DHT22;12046;44.702;10.622;2022-10-16T15:46:49;24.90;90.80
23731;DHT22;12046;44.702;10.622;2022-10-16T15:49:15;24.90;91.00
23731;DHT22;12046;44.702;10.622;2022-10-16T15:51:51;24.90;91.00
23731;DHT22;12046;44.702;10.622;2022-10-16T15:54:18;24.80;91.20
23731;DHT22;12046;44.702;10.622;2022-10-16T15:56:47;24.80;91.30
23731;DHT22;12046;44.702;10.622;2022-10-16T16:01:58;24.70;91.40
23731;DHT22;12046;44.702;10.622;2022-10-16T16:04:24;24.70;91.40
23731;DHT22;12046;44.702;10.622;2022-10-16T16:06:59;24.60;91.40
23731;DHT22;12046;44.702;10.622;2022-10-16T16:09:28;24.60;91.60
23731;DHT22;12046;44.702;10.622;2022-10-16T16:11:54;24.50;91.90
23731;DHT22;12046;44.702;10.622;2022-10-16T16:14:21;24.50;92.00
23731;DHT22;12046;44.702;10.622;2022-10-16T16:16:47;24.50;92.10
23731;DHT22;12046;44.702;10.622;2022-10-16T16:19:13;24.50;92.20
23731;DHT22;12046;44.702;10.622;2022-10-16T16:21:44;24.50;92.20
23731;DHT22;12046;44.702;10.622;2022-10-16T16:24:10;24.40;92.50
23731;DHT22;12046;44.702;10.622;2022-10-16T16:26:40;24.40;92.30
23731;DHT22;12046;44.702;10.622;2022-10-16T16:29:15;24.30;92.60
23731;DHT22;12046;44.702;10.622;2022-10-16T16:32:02;24.30;92.80
23731;DHT22;12046;44.702;10.622;2022-10-16T16:34:39;24.30;92.90
23731;DHT22;12046;44.702;10.622;2022-10-16T16:37:05;24.30;93.00
23731;DHT22;12046;44.702;10.622;2022-10-16T16:39:34;24.20;93.00
23731;DHT22;12046;44.702;10.622;2022-10-16T16:42:03;24.20;93.50
23731;DHT22;12046;44.702;10.622;2022-10-16T16:45:01;24.20;93.40
23731;DHT22;12046;44.702;10.622;2022-10-16T16:47:28;24.10;93.40
23731;DHT22;12046;44.702;10.622;2022-10-16T16:49:56;24.10;93.40
23731;DHT22;12046;44.702;10.622;2022-10-16T16:52:23;24.00;93.70
23731;DHT22;12046;44.702;10.622;2022-10-16T16:54:49;24.00;93.80
23731;DHT22;12046;44.702;10.622;2022-10-16T16:57:23;23.90;94.10
23731;DHT22;12046;44.702;10.622;2022-10-16T16:59:52;23.90;94.30
23731;DHT22;12046;44.702;10.622;2022-10-16T17:02:21;23.90;94.30
23731;DHT22;12046;44.702;10.622;2022-10-16T17:04:50;23.90;94.40
23731;DHT22;12046;44.702;10.622;2022-10-16T17:07:18;23.80;94.40
23731;DHT22;12046;44.702;10.622;2022-10-16T17:09:44;23.80;94.40
23731;DHT22;12046;44.702;10.622;2022-10-16T17:12:10;23.80;94.50
23731;DHT22;12046;44.702;10.622;2022-10-16T17:14:37;23.80;94.50
23731;DHT22;12046;44.702;10.622;2022-10-16T17:17:16;23.80;94.50
23731;DHT22;12046;44.702;10.622;2022-10-16T17:19:56;23.70;94.60
23731;DHT22;12046;44.702;10.622;2022-10-16T17:22:23;23.70;94.70
23731;DHT22;12046;44.702;10.622;2022-10-16T17:24:50;23.70;94.80
23731;DHT22;12046;44.702;10.622;2022-10-16T17:27:18;23.60;94.90
23731;DHT22;12046;44.702;10.622;2022-10-16T17:29:44;23.50;95.10
23731;DHT22;12046;44.702;10.622;2022-10-16T17:32:10;23.50;95.10
23731;DHT22;12046;44.702;10.622;2022-10-16T17:34:36;23.50;95.30
23731;DHT22;12046;44.702;10.622;2022-10-16T17:37:05;23.40;95.60
23731;DHT22;12046;44.702;10.622;2022-10-16T17:39:31;23.30;95.70
23731;DHT22;12046;44.702;10.622;2022-10-16T17:42:03;23.30;95.80
23731;DHT22;12046;44.702;10.622;2022-10-16T17:44:29;23.30;96.10
23731;DHT22;12046;44.702;10.622;2022-10-16T17:46:58;23.20;95.90
23731;DHT22;12046;44.702;10.622;2022-10-16T17:49:27;23.20;96.10
23731;DHT22;12046;44.702;10.622;2022-10-16T17:51:56;23.20;96.20
23731;DHT22;12046;44.702;10.622;2022-10-16T17:54:23;23.20;96.30
23731;DHT22;12046;44.702;10.622;2022-10-16T17:56:49;23.20;96.40
23731;DHT22;12046;44.702;10.622;2022-10-16T17:59:15;23.10;96.50
23731;DHT22;12046;44.702;10.622;2022-10-16T18:01:51;23.20;96.60
23731;DHT22;12046;44.702;10.622;2022-10-16T18:04:16;23.10;96.70
23731;DHT22;12046;44.702;10.622;2022-10-16T18:06:45;23.10;96.90
23731;DHT22;12046;44.702;10.622;2022-10-16T18:09:15;23.00;97.00
23731;DHT22;12046;44.702;10.622;2022-10-16T18:11:46;22.90;97.10
23731;DHT22;12046;44.702;10.622;2022-10-16T18:14:20;22.90;97.30
23731;DHT22;12046;44.702;10.622;2022-10-16T18:16:46;22.90;97.40
23731;DHT22;12046;44.702;10.622;2022-10-16T18:19:12;22.80;97.60
23731;DHT22;12046;44.702;10.622;2022-10-16T18:21:38;22.80;97.80
23731;DHT22;12046;44.702;10.622;2022-10-16T18:24:04;22.70;98.00
23731;DHT22;12046;44.702;10.622;2022-10-16T18:26:30;22.60;98.20